sensor_id;sensor_type;location;lat;lon;timestamp;pressure;altitude;pressure_sealevel;temperature
40199;BMP280;25906;43.536;26.068;2023-07-08T00:00:17;98908.38;;;19.94
40199;BMP280;25906;43.536;26.068;2023-07-08T00:03:03;98909.13;;;20.00
40199;BMP280;25906;43.536;26.068;2023-07-08T00:05:53;98901.56;;;20.04
40199;BMP280;25906;43.536;26.068;2023-07-08T00:08:40;98898.63;;;20.02
40199;BMP280;25906;43.536;26.068;2023-07-08T00:11:26;98898.56;;;19.91
40199;BMP280;25906;43.536;26.068;2023-07-08T00:14:13;98910.84;;;20.03
40199;BMP280;25906;43.536;26.068;2023-07-08T00:16:58;98911.31;;;19.96
40199;BMP280;25906;43.536;26.068;2023-07-08T00:19:44;98908.38;;;20.00
40199;BMP280;25906;43.536;26.068;2023-07-08T00:22:29;98915.50;;;20.08
40199;BMP280;25906;43.536;26.068;2023-07-08T00:25:14;98909.88;;;20.06
40199;BMP280;25906;43.536;26.068;2023-07-08T00:28:00;98897.91;;;20.02
40199;BMP280;25906;43.536;26.068;2023-07-08T00:30:45;98892.03;;;20.09
40199;BMP280;25906;43.536;26.068;2023-07-08T00:33:31;98900.84;;;20.10
40199;BMP280;25906;43.536;26.068;2023-07-08T00:36:17;98900.38;;;20.11
40199;BMP280;25906;43.536;26.068;2023-07-08T00:39:02;98907.44;;;20.08
40199;BMP280;25906;43.536;26.068;2023-07-08T00:41:48;98912.06;;;19.97
40199;BMP280;25906;43.536;26.068;2023-07-08T00:44:34;98908.91;;;19.98
40199;BMP280;25906;43.536;26.068;2023-07-08T00:47:22;98894.25;;;20.11
40199;BMP280;25906;43.536;26.068;2023-07-08T00:50:08;98901.09;;;20.12
40199;BMP280;25906;43.536;26.068;2023-07-08T00:56:11;98908.44;;;20.17
40199;BMP280;25906;43.536;26.068;2023-07-08T00:59:05;98907.97;;;20.18
40199;BMP280;25906;43.536;26.068;2023-07-08T01:01:53;98908.69;;;20.19
40199;BMP280;25906;43.536;26.068;2023-07-08T01:04:50;98901.38;;;20.25
40199;BMP280;25906;43.536;26.068;2023-07-08T01:07:38;98902.81;;;20.15
40199;BMP280;25906;43.536;26.068;2023-07-08T01:10:29;98900.97;;;19.78
40199;BMP280;25906;43.536;26.068;2023-07-08T01:13:19;98907.72;;;19.57
40199;BMP280;25906;43.536;26.068;2023-07-08T01:16:06;98904.50;;;19.11
40199;BMP280;25906;43.536;26.068;2023-07-08T01:18:52;98900.38;;;19.15
40199;BMP280;25906;43.536;26.068;2023-07-08T01:21:39;98897.88;;;19.12
40199;BMP280;25906;43.536;26.068;2023-07-08T01:24:25;98903.09;;;18.89
40199;BMP280;25906;43.536;26.068;2023-07-08T01:27:13;98901.00;;;19.05
40199;BMP280;25906;43.536;26.068;2023-07-08T01:30:00;98902.00;;;19.44
40199;BMP280;25906;43.536;26.068;2023-07-08T01:32:50;98887.00;;;19.63
40199;BMP280;25906;43.536;26.068;2023-07-08T01:35:36;98900.22;;;19.78
40199;BMP280;25906;43.536;26.068;2023-07-08T01:38:24;98896.81;;;19.83
40199;BMP280;25906;43.536;26.068;2023-07-08T01:41:14;98902.66;;;19.76
40199;BMP280;25906;43.536;26.068;2023-07-08T01:44:00;98902.94;;;19.83
40199;BMP280;25906;43.536;26.068;2023-07-08T01:46:45;98906.91;;;19.93
40199;BMP280;25906;43.536;26.068;2023-07-08T01:49:31;98898.63;;;20.02
40199;BMP280;25906;43.536;26.068;2023-07-08T01:52:18;98906.47;;;20.12
40199;BMP280;25906;43.536;26.068;2023-07-08T01:55:04;98917.72;;;20.16
40199;BMP280;25906;43.536;26.068;2023-07-08T01:57:54;98906.00;;;20.19
40199;BMP280;25906;43.536;26.068;2023-07-08T02:00:39;98903.06;;;20.17
40199;BMP280;25906;43.536;26.068;2023-07-08T02:03:25;98908.47;;;20.22
40199;BMP280;25906;43.536;26.068;2023-07-08T02:06:11;98904.78;;;20.25
40199;BMP280;25906;43.536;26.068;2023-07-08T02:08:56;98908.50;;;20.28
40199;BMP280;25906;43.536;26.068;2023-07-08T02:11:44;98903.31;;;20.24
40199;BMP280;25906;43.536;26.068;2023-07-08T02:14:29;98900.56;;;19.96
40199;BMP280;25906;43.536;26.068;2023-07-08T02:17:15;98898.47;;;19.64
40199;BMP280;25906;43.536;26.068;2023-07-08T02:20:02;98894.78;;;19.61
40199;BMP280;25906;43.536;26.068;2023-07-08T02:22:48;98903.03;;;19.52
40199;BMP280;25906;43.536;26.068;2023-07-08T02:25:33;98899.84;;;19.48
40199;BMP280;25906;43.536;26.068;2023-07-08T02:28:19;98901.94;;;19.75
40199;BMP280;25906;43.536;26.068;2023-07-08T02:31:04;98903.72;;;19.89
40199;BMP280;25906;43.536;26.068;2023-07-08T02:33:50;98903.53;;;19.98
40199;BMP280;25906;43.536;26.068;2023-07-08T02:36:35;98905.69;;;20.00
40199;BMP280;25906;43.536;26.068;2023-07-08T02:39:22;98909.16;;;20.12
40199;BMP280;25906;43.536;26.068;2023-07-08T02:42:07;98915.28;;;20.18
40199;BMP280;25906;43.536;26.068;2023-07-08T02:44:53;98908.94;;;20.26
40199;BMP280;25906;43.536;26.068;2023-07-08T02:47:38;98916.75;;;20.24
40199;BMP280;25906;43.536;26.068;2023-07-08T02:50:24;98914.34;;;20.26
40199;BMP280;25906;43.536;26.068;2023-07-08T02:53:10;98917.75;;;20.27
40199;BMP280;25906;43.536;26.068;2023-07-08T02:55:55;98921.31;;;19.96
40199;BMP280;25906;43.536;26.068;2023-07-08T02:58:41;98921.41;;;20.18
40199;BMP280;25906;43.536;26.068;2023-07-08T03:01:26;98923.16;;;20.38
40199;BMP280;25906;43.536;26.068;2023-07-08T03:04:12;98921.44;;;20.35
40199;BMP280;25906;43.536;26.068;2023-07-08T03:06:58;98924.59;;;20.33
40199;BMP280;25906;43.536;26.068;2023-07-08T03:09:44;98920.47;;;20.43
40199;BMP280;25906;43.536;26.068;2023-07-08T03:12:29;98917.81;;;20.49
40199;BMP280;25906;43.536;26.068;2023-07-08T03:15:14;98930.25;;;20.35
40199;BMP280;25906;43.536;26.068;2023-07-08T03:18:00;98932.38;;;20.15
40199;BMP280;25906;43.536;26.068;2023-07-08T03:20:47;98934.41;;;20.42
40199;BMP280;25906;43.536;26.068;2023-07-08T03:23:33;98942.00;;;20.49
40199;BMP280;25906;43.536;26.068;2023-07-08T03:26:21;98939.03;;;20.41
40199;BMP280;25906;43.536;26.068;2023-07-08T03:29:14;98942.47;;;20.36
40199;BMP280;25906;43.536;26.068;2023-07-08T03:31:59;98945.44;;;20.49
40199;BMP280;25906;43.536;26.068;2023-07-08T03:34:45;98946.38;;;20.46
40199;BMP280;25906;43.536;26.068;2023-07-08T03:37:30;98937.63;;;20.57
40199;BMP280;25906;43.536;26.068;2023-07-08T03:40:16;98938.78;;;20.39
40199;BMP280;25906;43.536;26.068;2023-07-08T03:43:01;98951.19;;;20.15
40199;BMP280;25906;43.536;26.068;2023-07-08T03:45:47;98958.69;;;19.94
40199;BMP280;25906;43.536;26.068;2023-07-08T03:48:32;98957.75;;;20.02
40199;BMP280;25906;43.536;26.068;2023-07-08T03:51:29;98960.28;;;20.34
40199;BMP280;25906;43.536;26.068;2023-07-08T03:54:17;98968.63;;;20.36
40199;BMP280;25906;43.536;26.068;2023-07-08T03:57:03;98975.00;;;20.44
40199;BMP280;25906;43.536;26.068;2023-07-08T03:59:48;98964.72;;;20.48
40199;BMP280;25906;43.536;26.068;2023-07-08T04:02:34;98953.47;;;20.55
40199;BMP280;25906;43.536;26.068;2023-07-08T04:05:21;98951.56;;;20.61
40199;BMP280;25906;43.536;26.068;2023-07-08T04:08:07;98962.06;;;20.64
40199;BMP280;25906;43.536;26.068;2023-07-08T04:10:53;98960.38;;;20.61
40199;BMP280;25906;43.536;26.068;2023-07-08T04:13:38;98966.75;;;20.70
40199;BMP280;25906;43.536;26.068;2023-07-08T04:16:28;98968.28;;;20.12
40199;BMP280;25906;43.536;26.068;2023-07-08T04:19:15;98969.84;;;20.35
40199;BMP280;25906;43.536;26.068;2023-07-08T04:22:01;98959.88;;;20.52
40199;BMP280;25906;43.536;26.068;2023-07-08T04:24:47;98952.56;;;20.69
40199;BMP280;25906;43.536;26.068;2023-07-08T04:27:32;98949.13;;;20.80
40199;BMP280;25906;43.536;26.068;2023-07-08T04:30:22;98946.94;;;20.78
40199;BMP280;25906;43.536;26.068;2023-07-08T04:33:13;98943.00;;;20.79
40199;BMP280;25906;43.536;26.068;2023-07-08T04:35:58;98941.31;;;20.98
40199;BMP280;25906;43.536;26.068;2023-07-08T04:38:44;98938.38;;;21.07
40199;BMP280;25906;43.536;26.068;2023-07-08T04:41:32;98926.63;;;21.16
40199;BMP280;25906;43.536;26.068;2023-07-08T04:44:17;98938.34;;;21.30
40199;BMP280;25906;43.536;26.068;2023-07-08T04:47:04;98941.03;;;21.24
40199;BMP280;25906;43.536;26.068;2023-07-08T04:49:50;98935.16;;;21.20
40199;BMP280;25906;43.536;26.068;2023-07-08T04:52:35;98947.91;;;21.14
40199;BMP280;25906;43.536;26.068;2023-07-08T04:55:22;98953.53;;;21.16
40199;BMP280;25906;43.536;26.068;2023-07-08T04:58:07;98953.75;;;21.23
40199;BMP280;25906;43.536;26.068;2023-07-08T05:00:53;98961.63;;;21.05
40199;BMP280;25906;43.536;26.068;2023-07-08T05:03:38;98952.81;;;20.93
40199;BMP280;25906;43.536;26.068;2023-07-08T05:06:23;98962.84;;;20.82
40199;BMP280;25906;43.536;26.068;2023-07-08T05:09:09;98955.00;;;20.89
40199;BMP280;25906;43.536;26.068;2023-07-08T05:11:55;98954.03;;;20.92
40199;BMP280;25906;43.536;26.068;2023-07-08T05:14:40;98954.78;;;20.93
40199;BMP280;25906;43.536;26.068;2023-07-08T05:17:27;98958.44;;;20.90
40199;BMP280;25906;43.536;26.068;2023-07-08T05:20:14;98963.31;;;20.97
40199;BMP280;25906;43.536;26.068;2023-07-08T05:22:59;98959.88;;;20.80
40199;BMP280;25906;43.536;26.068;2023-07-08T05:25:45;98959.56;;;20.28
40199;BMP280;25906;43.536;26.068;2023-07-08T05:28:30;98964.25;;;20.49
40199;BMP280;25906;43.536;26.068;2023-07-08T05:31:16;98963.56;;;20.82
40199;BMP280;25906;43.536;26.068;2023-07-08T05:34:01;98960.13;;;20.87
40199;BMP280;25906;43.536;26.068;2023-07-08T05:36:47;98964.28;;;20.88
40199;BMP280;25906;43.536;26.068;2023-07-08T05:39:32;98972.13;;;20.97
40199;BMP280;25906;43.536;26.068;2023-07-08T05:42:19;98953.31;;;20.97
40199;BMP280;25906;43.536;26.068;2023-07-08T05:45:05;98963.56;;;21.04
40199;BMP280;25906;43.536;26.068;2023-07-08T05:47:55;98961.63;;;21.05
40199;BMP280;25906;43.536;26.068;2023-07-08T05:50:41;98960.91;;;20.99
40199;BMP280;25906;43.536;26.068;2023-07-08T05:53:26;98956.00;;;21.08
40199;BMP280;25906;43.536;26.068;2023-07-08T05:56:11;98963.56;;;21.21
40199;BMP280;25906;43.536;26.068;2023-07-08T05:58:57;98958.91;;;21.33
40199;BMP280;25906;43.536;26.068;2023-07-08T06:01:42;98961.38;;;21.31
40199;BMP280;25906;43.536;26.068;2023-07-08T06:04:28;98958.41;;;21.34
40199;BMP280;25906;43.536;26.068;2023-07-08T06:07:13;98962.28;;;21.50
40199;BMP280;25906;43.536;26.068;2023-07-08T06:09:59;98964.69;;;21.70
40199;BMP280;25906;43.536;26.068;2023-07-08T06:12:44;98962.75;;;21.70
40199;BMP280;25906;43.536;26.068;2023-07-08T06:15:30;98972.00;;;21.80
40199;BMP280;25906;43.536;26.068;2023-07-08T06:18:15;98984.00;;;21.85
40199;BMP280;25906;43.536;26.068;2023-07-08T06:21:01;98987.44;;;21.80
40199;BMP280;25906;43.536;26.068;2023-07-08T06:23:46;98986.16;;;21.98
40199;BMP280;25906;43.536;26.068;2023-07-08T06:26:32;98990.06;;;22.02
40199;BMP280;25906;43.536;26.068;2023-07-08T06:29:17;98994.00;;;22.01
40199;BMP280;25906;43.536;26.068;2023-07-08T06:32:05;98994.00;;;22.01
40199;BMP280;25906;43.536;26.068;2023-07-08T06:34:50;98992.50;;;22.00
40199;BMP280;25906;43.536;26.068;2023-07-08T06:37:36;99000.38;;;21.93
40199;BMP280;25906;43.536;26.068;2023-07-08T06:40:21;98987.13;;;21.95
40199;BMP280;25906;43.536;26.068;2023-07-08T06:43:06;98995.00;;;21.87
40199;BMP280;25906;43.536;26.068;2023-07-08T06:45:52;98985.22;;;21.84
40199;BMP280;25906;43.536;26.068;2023-07-08T06:48:37;98981.56;;;21.81
40199;BMP280;25906;43.536;26.068;2023-07-08T06:51:23;98985.44;;;21.97
40199;BMP280;25906;43.536;26.068;2023-07-08T06:54:08;98991.31;;;21.96
40199;BMP280;25906;43.536;26.068;2023-07-08T06:56:56;98992.72;;;22.08
40199;BMP280;25906;43.536;26.068;2023-07-08T06:59:41;98996.63;;;22.07
40199;BMP280;25906;43.536;26.068;2023-07-08T07:02:27;98994.91;;;22.20
40199;BMP280;25906;43.536;26.068;2023-07-08T07:05:12;98995.69;;;22.04
40199;BMP280;25906;43.536;26.068;2023-07-08T07:07:58;99004.94;;;22.20
40199;BMP280;25906;43.536;26.068;2023-07-08T07:10:43;99005.47;;;22.07
40199;BMP280;25906;43.536;26.068;2023-07-08T07:13:29;99003.25;;;22.11
40199;BMP280;25906;43.536;26.068;2023-07-08T07:16:14;98998.09;;;22.13
40199;BMP280;25906;43.536;26.068;2023-07-08T07:19:00;99014.34;;;21.97
40199;BMP280;25906;43.536;26.068;2023-07-08T07:21:45;99030.34;;;21.67
40199;BMP280;25906;43.536;26.068;2023-07-08T07:24:31;99023.25;;;20.86
40199;BMP280;25906;43.536;26.068;2023-07-08T07:27:16;99035.72;;;20.89
40199;BMP280;25906;43.536;26.068;2023-07-08T07:30:02;99036.94;;;20.88
40199;BMP280;25906;43.536;26.068;2023-07-08T07:32:48;99043.50;;;20.71
40199;BMP280;25906;43.536;26.068;2023-07-08T07:35:33;99046.97;;;20.88
40199;BMP280;25906;43.536;26.068;2023-07-08T07:38:18;99053.78;;;20.61
40199;BMP280;25906;43.536;26.068;2023-07-08T07:41:04;99060.53;;;20.40
40199;BMP280;25906;43.536;26.068;2023-07-08T07:43:51;99064.75;;;20.57
40199;BMP280;25906;43.536;26.068;2023-07-08T07:46:37;99063.53;;;20.53
40199;BMP280;25906;43.536;26.068;2023-07-08T07:49:22;99064.50;;;20.55
40199;BMP280;25906;43.536;26.068;2023-07-08T07:52:08;99058.16;;;20.53
40199;BMP280;25906;43.536;26.068;2023-07-08T07:54:56;99060.53;;;20.45
40199;BMP280;25906;43.536;26.068;2023-07-08T07:57:41;99058.16;;;20.53
40199;BMP280;25906;43.536;26.068;2023-07-08T08:00:27;99052.25;;;20.54
40199;BMP280;25906;43.536;26.068;2023-07-08T08:03:12;99046.91;;;20.60
40199;BMP280;25906;43.536;26.068;2023-07-08T08:05:57;99047.16;;;20.62
40199;BMP280;25906;43.536;26.068;2023-07-08T08:08:44;99043.28;;;20.69
40199;BMP280;25906;43.536;26.068;2023-07-08T08:11:30;99038.41;;;20.78
40199;BMP280;25906;43.536;26.068;2023-07-08T08:14:15;99046.38;;;20.45
40199;BMP280;25906;43.536;26.068;2023-07-08T08:17:01;99044.56;;;20.20
40199;BMP280;25906;43.536;26.068;2023-07-08T08:19:47;99043.38;;;20.32
40199;BMP280;25906;43.536;26.068;2023-07-08T08:22:32;99043.47;;;20.54
40199;BMP280;25906;43.536;26.068;2023-07-08T08:25:19;99047.88;;;20.57
40199;BMP280;25906;43.536;26.068;2023-07-08T08:28:05;99056.94;;;20.71
40199;BMP280;25906;43.536;26.068;2023-07-08T08:30:50;99059.00;;;20.98
40199;BMP280;25906;43.536;26.068;2023-07-08T08:33:36;99061.94;;;21.11
40199;BMP280;25906;43.536;26.068;2023-07-08T08:36:21;99065.13;;;21.15
40199;BMP280;25906;43.536;26.068;2023-07-08T08:39:07;99055.81;;;21.10
40199;BMP280;25906;43.536;26.068;2023-07-08T08:41:52;99064.16;;;21.29
40199;BMP280;25906;43.536;26.068;2023-07-08T08:44:42;99055.59;;;21.47
40199;BMP280;25906;43.536;26.068;2023-07-08T08:47:40;99057.03;;;21.59
40199;BMP280;25906;43.536;26.068;2023-07-08T08:53:24;99061.19;;;21.77
40199;BMP280;25906;43.536;26.068;2023-07-08T08:56:40;99063.56;;;22.03
40199;BMP280;25906;43.536;26.068;2023-07-08T08:59:41;99062.47;;;22.33
40199;BMP280;25906;43.536;26.068;2023-07-08T09:02:41;99074.81;;;22.70
40199;BMP280;25906;43.536;26.068;2023-07-08T09:05:27;99066.94;;;22.72
40199;BMP280;25906;43.536;26.068;2023-07-08T09:08:15;99070.75;;;22.52
40199;BMP280;25906;43.536;26.068;2023-07-08T09:11:11;99063.69;;;22.43
40199;BMP280;25906;43.536;26.068;2023-07-08T09:13:59;99069.56;;;22.42
40199;BMP280;25906;43.536;26.068;2023-07-08T09:20:26;99075.94;;;22.85
40199;BMP280;25906;43.536;26.068;2023-07-08T09:23:24;99070.78;;;22.87
40199;BMP280;25906;43.536;26.068;2023-07-08T09:26:16;99074.22;;;23.17
40199;BMP280;25906;43.536;26.068;2023-07-08T09:29:07;99077.75;;;23.66
40199;BMP280;25906;43.536;26.068;2023-07-08T09:31:53;99077.25;;;23.38
40199;BMP280;25906;43.536;26.068;2023-07-08T09:35:04;99073.88;;;23.56
40199;BMP280;25906;43.536;26.068;2023-07-08T09:37:51;99079.38;;;23.75
40199;BMP280;25906;43.536;26.068;2023-07-08T09:40:37;99082.56;;;23.98
40199;BMP280;25906;43.536;26.068;2023-07-08T09:43:30;99070.78;;;24.19
40199;BMP280;25906;43.536;26.068;2023-07-08T09:46:22;99064.09;;;24.02
40199;BMP280;25906;43.536;26.068;2023-07-08T09:49:21;99061.59;;;24.60
40199;BMP280;25906;43.536;26.068;2023-07-08T09:52:12;99069.88;;;24.48
40199;BMP280;25906;43.536;26.068;2023-07-08T09:54:57;99060.84;;;24.59
40199;BMP280;25906;43.536;26.068;2023-07-08T09:57:44;99068.03;;;24.38
40199;BMP280;25906;43.536;26.068;2023-07-08T10:00:39;99056.72;;;24.39
40199;BMP280;25906;43.536;26.068;2023-07-08T10:03:31;99052.19;;;24.29
40199;BMP280;25906;43.536;26.068;2023-07-08T10:06:28;99053.44;;;24.46
40199;BMP280;25906;43.536;26.068;2023-07-08T10:09:24;99049.31;;;24.21
40199;BMP280;25906;43.536;26.068;2023-07-08T10:12:13;99043.47;;;24.36
40199;BMP280;25906;43.536;26.068;2023-07-08T10:15:18;99041.22;;;24.90
40199;BMP280;25906;43.536;26.068;2023-07-08T10:18:16;99040.72;;;24.73
40199;BMP280;25906;43.536;26.068;2023-07-08T10:21:09;99040.28;;;25.01
40199;BMP280;25906;43.536;26.068;2023-07-08T10:26:49;99029.72;;;25.55
40199;BMP280;25906;43.536;26.068;2023-07-08T10:32:52;99013.75;;;25.65
40199;BMP280;25906;43.536;26.068;2023-07-08T10:45:30;98989.69;;;25.95
40199;BMP280;25906;43.536;26.068;2023-07-08T10:48:28;98985.44;;;26.20
40199;BMP280;25906;43.536;26.068;2023-07-08T10:54:32;98982.63;;;25.92
40199;BMP280;25906;43.536;26.068;2023-07-08T11:01:04;98976.13;;;25.95
40199;BMP280;25906;43.536;26.068;2023-07-08T11:07:14;98988.44;;;26.09
40199;BMP280;25906;43.536;26.068;2023-07-08T11:10:15;98989.84;;;26.44
40199;BMP280;25906;43.536;26.068;2023-07-08T11:13:05;98990.59;;;26.65
40199;BMP280;25906;43.536;26.068;2023-07-08T11:16:14;98988.50;;;26.37
40199;BMP280;25906;43.536;26.068;2023-07-08T11:22:04;98977.88;;;26.88
40199;BMP280;25906;43.536;26.068;2023-07-08T11:24:54;98986.78;;;26.68
40199;BMP280;25906;43.536;26.068;2023-07-08T11:27:42;98984.94;;;26.22
40199;BMP280;25906;43.536;26.068;2023-07-08T11:30:30;98986.84;;;26.34
40199;BMP280;25906;43.536;26.068;2023-07-08T11:33:17;98977.88;;;25.72
40199;BMP280;25906;43.536;26.068;2023-07-08T11:36:04;98985.22;;;25.38
40199;BMP280;25906;43.536;26.068;2023-07-08T11:38:54;98980.41;;;25.31
40199;BMP280;25906;43.536;26.068;2023-07-08T11:41:39;98975.16;;;24.93
40199;BMP280;25906;43.536;26.068;2023-07-08T11:44:25;98980.19;;;25.15
40199;BMP280;25906;43.536;26.068;2023-07-08T11:47:19;98984.47;;;24.98
40199;BMP280;25906;43.536;26.068;2023-07-08T11:50:51;98973.19;;;25.72
40199;BMP280;25906;43.536;26.068;2023-07-08T11:53:14;98971.09;;;26.12
40199;BMP280;25906;43.536;26.068;2023-07-08T11:59:21;98970.41;;;26.32
40199;BMP280;25906;43.536;26.068;2023-07-08T12:02:14;98975.47;;;26.77
40199;BMP280;25906;43.536;26.068;2023-07-08T12:05:13;98977.53;;;26.92
40199;BMP280;25906;43.536;26.068;2023-07-08T12:07:59;98977.97;;;27.32
40199;BMP280;25906;43.536;26.068;2023-07-08T12:10:49;98974.75;;;27.48
40199;BMP280;25906;43.536;26.068;2023-07-08T12:13:35;98974.63;;;27.18
40199;BMP280;25906;43.536;26.068;2023-07-08T12:16:21;98977.47;;;27.48
40199;BMP280;25906;43.536;26.068;2023-07-08T12:19:09;98976.22;;;27.49
40199;BMP280;25906;43.536;26.068;2023-07-08T12:21:56;98977.53;;;26.64
40199;BMP280;25906;43.536;26.068;2023-07-08T12:24:41;98980.81;;;26.28
40199;BMP280;25906;43.536;26.068;2023-07-08T12:27:28;98976.41;;;25.71
40199;BMP280;25906;43.536;26.068;2023-07-08T12:30:15;98980.50;;;25.25
40199;BMP280;25906;43.536;26.068;2023-07-08T12:33:01;98984.38;;;25.03
40199;BMP280;25906;43.536;26.068;2023-07-08T12:35:47;98991.66;;;24.95
40199;BMP280;25906;43.536;26.068;2023-07-08T12:38:37;99005.59;;;24.36
40199;BMP280;25906;43.536;26.068;2023-07-08T12:41:27;99010.59;;;23.52
40199;BMP280;25906;43.536;26.068;2023-07-08T12:44:21;99004.94;;;23.50
40199;BMP280;25906;43.536;26.068;2023-07-08T12:47:07;99023.78;;;23.31
40199;BMP280;25906;43.536;26.068;2023-07-08T12:49:53;99005.66;;;23.26
40199;BMP280;25906;43.536;26.068;2023-07-08T12:52:39;98996.78;;;23.07
40199;BMP280;25906;43.536;26.068;2023-07-08T12:55:26;98993.59;;;23.03
40199;BMP280;25906;43.536;26.068;2023-07-08T12:58:23;98992.19;;;22.96
40199;BMP280;25906;43.536;26.068;2023-07-08T13:01:19;99004.88;;;23.31
40199;BMP280;25906;43.536;26.068;2023-07-08T13:04:09;99001.50;;;23.73
40199;BMP280;25906;43.536;26.068;2023-07-08T13:06:55;99004.72;;;24.28
40199;BMP280;25906;43.536;26.068;2023-07-08T13:09:45;99003.34;;;24.03
40199;BMP280;25906;43.536;26.068;2023-07-08T13:12:32;99006.47;;;23.69
40199;BMP280;25906;43.536;26.068;2023-07-08T13:15:23;99005.00;;;23.68
40199;BMP280;25906;43.536;26.068;2023-07-08T13:21:01;99005.63;;;23.99
40199;BMP280;25906;43.536;26.068;2023-07-08T13:23:48;98991.56;;;23.81
40199;BMP280;25906;43.536;26.068;2023-07-08T13:26:35;99002.09;;;23.85
40199;BMP280;25906;43.536;26.068;2023-07-08T13:29:20;98994.97;;;23.88
40199;BMP280;25906;43.536;26.068;2023-07-08T13:32:09;98993.84;;;23.77
40199;BMP280;25906;43.536;26.068;2023-07-08T13:34:55;98997.78;;;23.76
40199;BMP280;25906;43.536;26.068;2023-07-08T13:37:40;98996.19;;;24.05
40199;BMP280;25906;43.536;26.068;2023-07-08T13:40:27;98984.16;;;24.38
40199;BMP280;25906;43.536;26.068;2023-07-08T13:43:12;98988.75;;;24.62
40199;BMP280;25906;43.536;26.068;2023-07-08T13:45:59;98982.53;;;24.80
40199;BMP280;25906;43.536;26.068;2023-07-08T13:48:44;98985.66;;;24.84
40199;BMP280;25906;43.536;26.068;2023-07-08T13:51:32;98987.63;;;24.83
40199;BMP280;25906;43.536;26.068;2023-07-08T13:54:25;98987.66;;;24.52
40199;BMP280;25906;43.536;26.068;2023-07-08T13:57:13;98988.00;;;24.61
40199;BMP280;25906;43.536;26.068;2023-07-08T14:00:00;98981.84;;;24.29
40199;BMP280;25906;43.536;26.068;2023-07-08T14:02:46;98984.25;;;24.32
40199;BMP280;25906;43.536;26.068;2023-07-08T14:05:31;98980.31;;;24.33
40199;BMP280;25906;43.536;26.068;2023-07-08T14:08:17;98981.53;;;24.51
40199;BMP280;25906;43.536;26.068;2023-07-08T14:11:03;98974.66;;;25.08
40199;BMP280;25906;43.536;26.068;2023-07-08T14:13:48;98974.47;;;25.45
40199;BMP280;25906;43.536;26.068;2023-07-08T14:16:36;98972.06;;;25.42
40199;BMP280;25906;43.536;26.068;2023-07-08T14:19:27;98984.88;;;25.67
40199;BMP280;25906;43.536;26.068;2023-07-08T14:25:05;98994.25;;;24.69
40199;BMP280;25906;43.536;26.068;2023-07-08T14:27:51;98985.16;;;24.72
40199;BMP280;25906;43.536;26.068;2023-07-08T14:30:42;98977.97;;;24.75
40199;BMP280;25906;43.536;26.068;2023-07-08T14:33:28;98985.34;;;24.74
40199;BMP280;25906;43.536;26.068;2023-07-08T14:36:14;98976.63;;;24.81
40199;BMP280;25906;43.536;26.068;2023-07-08T14:39:00;98987.06;;;24.90
40199;BMP280;25906;43.536;26.068;2023-07-08T14:41:48;98983.69;;;24.71
40199;BMP280;25906;43.536;26.068;2023-07-08T14:44:35;98986.72;;;24.49
40199;BMP280;25906;43.536;26.068;2023-07-08T14:47:21;98983.81;;;24.28
40199;BMP280;25906;43.536;26.068;2023-07-08T14:50:14;98984.34;;;24.08
40199;BMP280;25906;43.536;26.068;2023-07-08T14:53:00;98981.28;;;23.99
40199;BMP280;25906;43.536;26.068;2023-07-08T14:55:47;98981.19;;;24.04
40199;BMP280;25906;43.536;26.068;2023-07-08T14:58:33;98978.56;;;24.17
40199;BMP280;25906;43.536;26.068;2023-07-08T15:01:20;98980.47;;;24.41
40199;BMP280;25906;43.536;26.068;2023-07-08T15:04:13;98972.72;;;24.32
40199;BMP280;25906;43.536;26.068;2023-07-08T15:06:59;98976.13;;;24.51
40199;BMP280;25906;43.536;26.068;2023-07-08T15:09:45;98976.91;;;24.65
40199;BMP280;25906;43.536;26.068;2023-07-08T15:12:30;98976.28;;;24.40
40199;BMP280;25906;43.536;26.068;2023-07-08T15:15:21;98977.63;;;24.33
40199;BMP280;25906;43.536;26.068;2023-07-08T15:18:17;98989.22;;;24.47
40199;BMP280;25906;43.536;26.068;2023-07-08T15:21:04;98990.41;;;24.33
40199;BMP280;25906;43.536;26.068;2023-07-08T15:23:49;98987.84;;;24.40
40199;BMP280;25906;43.536;26.068;2023-07-08T15:26:35;98994.34;;;24.32
40199;BMP280;25906;43.536;26.068;2023-07-08T15:29:22;98983.66;;;24.21
40199;BMP280;25906;43.536;26.068;2023-07-08T15:32:12;98992.69;;;24.10
40199;BMP280;25906;43.536;26.068;2023-07-08T15:34:58;98989.53;;;24.06
40199;BMP280;25906;43.536;26.068;2023-07-08T15:37:44;99000.13;;;24.04
40199;BMP280;25906;43.536;26.068;2023-07-08T15:40:32;99003.78;;;23.64
40199;BMP280;25906;43.536;26.068;2023-07-08T15:43:17;99011.53;;;23.54
40199;BMP280;25906;43.536;26.068;2023-07-08T15:46:03;99001.88;;;23.35
40199;BMP280;25906;43.536;26.068;2023-07-08T15:48:50;99014.34;;;23.43
40199;BMP280;25906;43.536;26.068;2023-07-08T15:51:35;99012.69;;;23.35
40199;BMP280;25906;43.536;26.068;2023-07-08T15:54:21;99008.59;;;23.28
40199;BMP280;25906;43.536;26.068;2023-07-08T15:57:10;99017.22;;;23.27
40199;BMP280;25906;43.536;26.068;2023-07-08T15:59:56;99022.38;;;23.25
40199;BMP280;25906;43.536;26.068;2023-07-08T16:02:41;99014.25;;;23.30
40199;BMP280;25906;43.536;26.068;2023-07-08T16:05:27;99023.06;;;23.31
40199;BMP280;25906;43.536;26.068;2023-07-08T16:08:13;99016.44;;;23.32
40199;BMP280;25906;43.536;26.068;2023-07-08T16:11:01;99021.53;;;23.35
40199;BMP280;25906;43.536;26.068;2023-07-08T16:13:48;99017.34;;;23.34
40199;BMP280;25906;43.536;26.068;2023-07-08T16:16:33;99016.97;;;23.25
40199;BMP280;25906;43.536;26.068;2023-07-08T16:19:19;99022.88;;;23.23
40199;BMP280;25906;43.536;26.068;2023-07-08T16:22:04;99025.06;;;23.30
40199;BMP280;25906;43.536;26.068;2023-07-08T16:24:51;99028.50;;;23.25
40199;BMP280;25906;43.536;26.068;2023-07-08T16:27:37;99027.50;;;23.28
40199;BMP280;25906;43.536;26.068;2023-07-08T16:30:22;99033.16;;;23.25
40199;BMP280;25906;43.536;26.068;2023-07-08T16:33:08;99026.13;;;23.16
40199;BMP280;25906;43.536;26.068;2023-07-08T16:35:53;99038.88;;;23.21
40199;BMP280;25906;43.536;26.068;2023-07-08T16:38:39;99039.97;;;23.07